Main page
METAR-TAF:

METAR-TAF

Airports :

Agen La Garenne Airport

Agen, France

latitude: 44-11N, longitude: 000-36E, elevation: 61 m

Current weather observation

The report was made 19 minutes ago, at 07:00 UTC
Wind 4 kt from the West/Northwest, varying between West/Southwest and North/Northwest
Temperature 23°C
Humidity 78%
Pressure 1013 hPa
Visibility 10 km or more
Overcast at a height of 1700 ft

METAR: LFBA 130700Z AUTO 30004KT 250V330 9999 OVC017 23/19 Q1013 NOSIG

Time: 09:19 (07:19 UTC)

Forecast

The report was made 2 hours and 19 minutes ago, at 05:00 UTC
Forecast valid from 13 at 06 UTC to 13 at 15 UTC
Wind 7 kt from the West
Visibility 10 km or more
Broken clouds at a height of 1400 ft
Becoming
from 13 at 06 UTC to 13 at 08 UTC
Visibility 10 km or more
no clouds below 1500 m and no cumulonimbus

TAF: LFBA 130500Z 1306/1315 28007KT 9999 BKN014 BECMG 1306/1308 CAVOK

Weather observations and forecasts of more than 4000 airports (METAR and TAF reports).

The available stations are represented by yellow and red dots on the map.

Hover mouse over dot to see the name of the station.

Then click to see weather observations and forecasts.

To change the map : click on the green buttons with a black cross to zoom in, on the green button with a dash to zoom out, or on the green arrows for adjacent maps.


METAR-TAF: